Academy, South Dakota
Current Conditions -  °F | °C
As of 12:15 AM on Wednesday 22 Oct 2014 (Local Time) from K9V9 Reporting Station
Clear Clear  
Wind Chill: 16°   Ceiling: Unl
Heat Index: 16°   Visibility: 10mi
Dew Point:   Wind: 13mph
Humidity: 52%   Direction: 130°SE
Pressure: 29.85"   Gusts: NA
Location:  43.4255°N, 98.9806°W
Report Text: K9V9 220515Z AUTO 13011KT 10SM CLR 17/07 A2985 RMK AO2 T01650066
Loading
Personal Weather Stations






























Interactive Weather Map
Tropical Storm Tracking
New forecast layout! Learn more

10-Day Weather Forecast

Advertisements
Track Severe Weather on mobile